createdAt,value
2022-12-15T02:28:04.058Z,2.04
2022-12-15T02:33:11.476Z,1.99
2022-12-15T03:58:12.123Z,1.99
2022-12-15T04:09:37.172Z,1.99
2022-12-15T04:14:31.965Z,1.99
2022-12-15T04:40:14.203Z,1.95
2022-12-15T06:49:20.685Z,2.02
2022-12-15T06:54:14.223Z,2.04
2022-12-15T06:59:08.745Z,2.02
2022-12-15T07:04:05.429Z,2.03
2022-12-15T07:09:00.667Z,1.93
2022-12-15T07:13:55.267Z,1.96
2022-12-15T07:18:48.947Z,1.98
2022-12-15T12:51:30.005Z,2.32
2022-12-15T12:56:39.268Z,2.30
2022-12-15T13:01:35.662Z,2.33
2022-12-15T13:07:25.770Z,2.25
2022-12-15T13:12:51.861Z,2.14
2022-12-15T13:17:53.796Z,2.20
2022-12-15T13:22:48.812Z,2.07
2022-12-15T13:27:44.316Z,1.98
2022-12-15T13:32:40.671Z,2.01
2022-12-15T13:37:51.821Z,1.90
2022-12-15T13:42:56.179Z,1.89
2022-12-15T13:47:58.395Z,1.82
2022-12-15T13:58:18.750Z,1.90
2022-12-15T14:03:13.464Z,1.88
2022-12-15T14:08:16.664Z,2.00
2022-12-15T14:13:19.431Z,2.05
2022-12-15T14:18:27.970Z,1.86
2022-12-15T14:23:25.922Z,1.93
2022-12-15T14:28:29.878Z,1.96
2022-12-15T14:33:28.086Z,2.00
2022-12-15T14:38:32.249Z,1.97
2022-12-15T14:43:33.503Z,1.83
2022-12-15T14:48:43.044Z,1.86
2022-12-15T14:53:43.017Z,1.81
2022-12-15T14:58:41.942Z,1.83
2022-12-15T15:03:40.931Z,1.82
2022-12-15T15:08:44.423Z,1.63
2022-12-15T15:13:42.176Z,1.80
2022-12-15T15:18:35.876Z,1.82
2022-12-15T15:23:29.269Z,1.79
2022-12-15T15:28:28.531Z,1.76
2022-12-15T15:33:22.932Z,1.68
2022-12-15T15:38:27.021Z,1.70
2022-12-15T15:43:20.574Z,1.60
2022-12-15T15:48:24.177Z,1.57
2022-12-15T15:53:22.180Z,1.59
2022-12-15T15:58:15.765Z,1.60
2022-12-15T16:03:09.665Z,1.45
2022-12-15T16:08:06.072Z,1.43
2022-12-15T16:13:03.504Z,1.42
2022-12-15T16:17:57.229Z,1.22
2022-12-15T16:22:55.894Z,0.95
2022-12-15T16:27:50.607Z,1.19
2022-12-15T16:32:44.199Z,1.10
2022-12-15T16:37:39.782Z,1.12
2022-12-15T16:42:33.256Z,1.09
2022-12-15T16:47:29.402Z,1.20
2022-12-15T16:52:23.248Z,1.13
2022-12-15T16:57:16.858Z,1.12
2022-12-15T17:02:26.885Z,1.08
2022-12-15T17:07:23.150Z,1.22
2022-12-15T17:12:18.982Z,1.10
2022-12-15T21:53:11.503Z,1.01
2022-12-15T22:12:02.133Z,1.07
2022-12-15T22:16:56.070Z,0.99
2022-12-15T22:21:49.522Z,0.97
